Cutler, Illinois
Current Conditions -  °F | °C
As of 4:35 AM on Wednesday 22 Oct 2014 (Local Time) from KSAR Reporting Station
Clear Clear  
Wind Chill: 40°   Ceiling: Unl
Heat Index: 40°   Visibility: 10mi
Dew Point: 38°   Wind: 3mph
Humidity: 95%   Direction: 60°ENE
Pressure: 30.25"   Gusts: NA
Location:  38.03°N, 89.57°W
Report Text: KSAR 220935Z AUTO 06003KT 10SM CLR 04/04 A3025 RMK AO2 T00420035
Loading
Personal Weather Stations






























Interactive Weather Map
Tropical Storm Tracking
New forecast layout! Learn more

10-Day Weather Forecast

Advertisements
Track Severe Weather on mobile